Time;durP1;ratioP1;P1;durP2;ratioP2;P2;SDS_P1;SDS_P2;PMS_P1;PMS_P2;Temp;Humidity;BMP_temperature;BMP_pressure;BME280_temperature;BME280_humidity;BME280_pressure;Samples;Min_cycle;Max_cycle;Signal;HPM_P1;HPM_P2
2021/07/31 00:01:33;;;;;;;6.80;5.70;;;24.80;64.80;;;;;;1822866;79;21113;-56
2021/07/31 00:04:03;;;;;;;7.65;5.95;;;24.80;64.90;;;;;;1822943;79;21513;-56
2021/07/31 00:06:32;;;;;;;7.60;5.85;;;24.80;65.10;;;;;;1823002;78;21116;-56
2021/07/31 00:09:02;;;;;;;9.25;5.83;;;24.80;65.00;;;;;;1822935;77;21054;-56
2021/07/31 00:11:31;;;;;;;6.08;5.47;;;24.80;65.00;;;;;;1823162;79;21586;-56
2021/07/31 00:14:00;;;;;;;9.33;5.92;;;24.80;65.10;;;;;;1823153;79;21145;-56
2021/07/31 00:16:30;;;;;;;9.00;6.97;;;24.80;65.20;;;;;;1825906;77;21062;-56
2021/07/31 00:18:59;;;;;;;5.62;5.03;;;24.70;65.30;;;;;;1832114;78;21139;-55
2021/07/31 00:21:29;;;;;;;5.83;5.20;;;24.80;65.10;;;;;;1832027;78;21050;-56
2021/07/31 00:23:58;;;;;;;8.25;5.42;;;24.80;65.30;;;;;;1832070;78;21132;-55
2021/07/31 00:26:28;;;;;;;9.03;5.33;;;24.70;65.20;;;;;;1831955;78;21054;-55
2021/07/31 00:28:57;;;;;;;8.50;5.62;;;24.80;65.30;;;;;;1832078;78;21160;-56
2021/07/31 00:31:28;;;;;;;10.03;5.37;;;24.70;64.90;;;;;;1831669;78;21061;-56
2021/07/31 00:33:58;;;;;;;8.48;5.70;;;24.70;64.60;;;;;;1832026;78;21109;-56
2021/07/31 00:36:27;;;;;;;8.93;5.33;;;24.70;64.70;;;;;;1832015;78;21105;-56
2021/07/31 00:38:56;;;;;;;6.47;5.60;;;24.60;64.80;;;;;;1831987;78;21050;-56
2021/07/31 00:41:26;;;;;;;7.80;5.37;;;24.60;65.00;;;;;;1832021;78;21046;-56
2021/07/31 00:43:55;;;;;;;7.35;5.47;;;24.50;65.00;;;;;;1832124;78;21054;-56
2021/07/31 00:46:26;;;;;;;15.25;7.65;;;24.50;64.90;;;;;;1832074;78;21022;-56
2021/07/31 00:48:56;;;;;;;6.80;5.83;;;24.50;64.90;;;;;;1832114;78;21175;-56
2021/07/31 00:51:26;;;;;;;6.12;5.53;;;24.50;65.00;;;;;;1832020;78;21046;-56
2021/07/31 00:53:56;;;;;;;6.42;5.22;;;24.40;65.00;;;;;;1832032;78;21046;-56
2021/07/31 00:56:26;;;;;;;5.92;5.33;;;24.40;65.20;;;;;;1832129;78;21108;-56
2021/07/31 00:58:55;;;;;;;6.35;5.22;;;24.40;65.40;;;;;;1832232;78;21121;-56
2021/07/31 01:01:26;;;;;;;8.88;5.53;;;24.40;65.40;;;;;;1832078;78;21120;-56
2021/07/31 01:03:55;;;;;;;6.50;5.30;;;24.30;65.20;;;;;;1832080;78;21104;-56
2021/07/31 01:06:24;;;;;;;7.95;5.53;;;24.30;65.50;;;;;;1831953;78;21437;-56
2021/07/31 01:08:54;;;;;;;5.75;5.05;;;24.20;65.70;;;;;;1832134;78;21054;-56
2021/07/31 01:11:25;;;;;;;6.30;5.70;;;24.30;65.90;;;;;;1832079;78;21057;-56
2021/07/31 01:13:56;;;;;;;6.08;5.53;;;24.30;65.90;;;;;;1831819;78;21124;-56
2021/07/31 01:16:27;;;;;;;6.65;5.53;;;24.30;65.80;;;;;;1831449;78;21082;-54
2021/07/31 01:18:57;;;;;;;6.80;4.87;;;24.20;65.80;;;;;;1823161;79;21158;-56
2021/07/31 01:21:38;;;;;;;5.92;5.08;;;24.20;65.60;;;;;;1823082;79;21094;-56
2021/07/31 01:24:12;;;;;;;6.33;5.00;;;24.20;65.70;;;;;;1820568;78;21098;-56
2021/07/31 01:26:44;;;;;;;9.73;5.62;;;24.20;65.80;;;;;;1823019;79;21128;-56
2021/07/31 01:29:15;;;;;;;7.03;5.30;;;24.20;65.70;;;;;;1823090;78;21046;-56
2021/07/31 01:31:46;;;;;;;7.97;5.47;;;24.10;65.60;;;;;;1823093;79;21046;-56
2021/07/31 01:34:16;;;;;;;7.45;5.45;;;24.10;65.80;;;;;;1823285;78;21047;-56
2021/07/31 01:36:45;;;;;;;6.33;5.72;;;24.10;65.50;;;;;;1823045;78;21204;-56
2021/07/31 01:39:16;;;;;;;7.37;5.60;;;24.00;65.50;;;;;;1822961;78;21497;-56
2021/07/31 01:41:47;;;;;;;7.55;5.28;;;24.00;65.30;;;;;;1823046;79;21129;-56
2021/07/31 01:44:16;;;;;;;5.42;4.92;;;24.00;65.10;;;;;;1823156;79;21027;-56
2021/07/31 01:46:46;;;;;;;5.78;5.17;;;23.90;65.30;;;;;;1822982;79;21054;-56
2021/07/31 01:49:16;;;;;;;7.72;5.40;;;23.90;65.50;;;;;;1823054;77;21600;-56
2021/07/31 01:51:47;;;;;;;9.23;5.42;;;23.90;65.10;;;;;;1822042;78;21146;-56
2021/07/31 01:54:16;;;;;;;5.60;5.10;;;23.90;65.50;;;;;;1823097;78;21042;-56
2021/07/31 01:56:47;;;;;;;6.15;5.45;;;23.90;65.70;;;;;;1823130;78;21054;-56
2021/07/31 01:59:18;;;;;;;7.70;5.40;;;23.90;66.30;;;;;;1823120;79;21059;-56
2021/07/31 02:01:49;;;;;;;7.35;5.10;;;23.90;65.90;;;;;;1822993;78;21050;-56
2021/07/31 02:04:19;;;;;;;9.05;6.15;;;23.90;66.00;;;;;;1823117;78;21105;-56
2021/07/31 02:07:09;;;;;;;7.65;5.97;;;23.90;65.50;;;;;;1797735;80;21136;-56
2021/07/31 02:09:38;;;;;;;8.83;6.33;;;24.00;65.30;;;;;;1797721;80;21134;-56
2021/07/31 02:12:08;;;;;;;8.23;4.95;;;23.90;65.50;;;;;;1807239;78;21120;-56
2021/07/31 02:14:39;;;;;;;7.17;5.17;;;23.90;65.50;;;;;;1823091;79;21066;-56
2021/07/31 02:17:09;;;;;;;5.60;5.08;;;23.90;65.50;;;;;;1823566;77;21161;-55
2021/07/31 02:19:40;;;;;;;6.97;5.17;;;23.80;65.80;;;;;;1832177;78;21132;-56
2021/07/31 02:22:11;;;;;;;6.30;5.30;;;23.80;65.90;;;;;;1830915;77;21057;-56
2021/07/31 02:24:57;;;;;;;8.13;4.80;;;23.80;65.80;;;;;;1801700;80;21272;-56
2021/07/31 02:27:45;;;;;;;5.58;5.03;;;23.80;65.80;;;;;;1825962;78;21120;-56
2021/07/31 02:30:15;;;;;;;9.03;5.00;;;23.80;65.60;;;;;;1832079;77;21050;-56
2021/07/31 02:32:44;;;;;;;5.87;4.90;;;23.80;65.70;;;;;;1831787;78;21187;-56
2021/07/31 02:35:14;;;;;;;13.05;6.05;;;23.80;65.50;;;;;;1831892;78;21060;-56
2021/07/31 02:38:03;;;;;;;5.62;4.95;;;23.80;65.80;;;;;;1801639;80;21133;-56
2021/07/31 02:40:33;;;;;;;7.55;4.92;;;23.90;65.70;;;;;;1801614;80;21075;-56
2021/07/31 02:43:03;;;;;;;6.15;5.00;;;23.80;65.10;;;;;;1812999;78;21050;-56
2021/07/31 02:45:32;;;;;;;9.38;5.78;;;23.90;64.30;;;;;;1832042;78;21069;-56
2021/07/31 02:48:03;;;;;;;7.70;5.62;;;23.80;64.20;;;;;;1832061;78;21050;-56
2021/07/31 02:50:33;;;;;;;9.68;6.90;;;23.90;64.40;;;;;;1832078;78;21082;-56
2021/07/31 02:53:06;;;;;;;;;;;23.90;64.70;;;;;;1833644;78;21179;-56
2021/07/31 02:55:35;;;;;;;15.48;9.05;;;23.80;64.60;;;;;;1832154;78;20136;-56
2021/07/31 02:58:05;;;;;;;13.35;11.57;;;23.90;64.60;;;;;;1831943;78;21050;-56
2021/07/31 03:00:35;;;;;;;12.50;10.03;;;23.90;64.70;;;;;;1832073;78;21042;-56
2021/07/31 03:03:05;;;;;;;10.48;9.50;;;23.80;65.30;;;;;;1831956;78;21112;-56
2021/07/31 03:05:35;;;;;;;11.20;7.55;;;23.90;64.90;;;;;;1831997;77;21046;-56
2021/07/31 03:08:06;;;;;;;11.95;7.22;;;23.80;65.00;;;;;;1831570;78;21097;-56
2021/07/31 03:10:35;;;;;;;12.53;6.22;;;23.80;64.90;;;;;;1831979;78;21053;-56
2021/07/31 03:13:05;;;;;;;6.08;5.53;;;23.80;64.80;;;;;;1831868;78;21042;-56
2021/07/31 03:15:34;;;;;;;7.78;5.65;;;23.80;65.00;;;;;;1832112;78;21026;-56
2021/07/31 03:18:04;;;;;;;5.80;4.78;;;23.80;64.90;;;;;;1831984;77;21073;-56
2021/07/31 03:20:33;;;;;;;7.20;5.05;;;23.80;64.50;;;;;;1832018;78;21610;-56
2021/07/31 03:23:04;;;;;;;8.85;5.65;;;23.80;64.30;;;;;;1804174;78;21464;-56
2021/07/31 03:25:35;;;;;;;5.12;4.62;;;23.80;64.30;;;;;;1831910;78;21058;-55
2021/07/31 03:28:05;;;;;;;10.68;5.45;;;23.80;64.60;;;;;;1831927;78;21042;-56
2021/07/31 03:30:46;;;;;;;9.25;5.47;;;23.80;64.50;;;;;;1829830;77;21086;-56
2021/07/31 03:33:17;;;;;;;6.40;5.75;;;24.00;64.50;;;;;;1831805;78;21139;-56
2021/07/31 03:35:47;;;;;;;6.20;5.40;;;24.00;64.10;;;;;;1831936;78;21117;-56
2021/07/31 03:38:21;;;;;;;7.60;5.58;;;24.10;63.80;;;;;;1824100;78;21101;-56
2021/07/31 03:40:52;;;;;;;6.25;4.55;;;24.10;63.90;;;;;;1832099;77;21026;-56
2021/07/31 03:43:23;;;;;;;6.58;4.85;;;24.10;64.00;;;;;;1831484;78;21057;-56
2021/07/31 03:45:52;;;;;;;7.30;5.80;;;24.20;64.10;;;;;;1832110;78;21054;-56
2021/07/31 03:48:22;;;;;;;5.83;5.20;;;24.30;63.70;;;;;;1832184;77;21097;-56
2021/07/31 03:50:52;;;;;;;7.53;5.58;;;24.50;63.50;;;;;;1832108;78;21124;-56
2021/07/31 03:53:23;;;;;;;7.12;5.72;;;24.50;63.20;;;;;;1831053;78;21053;-56
2021/07/31 03:55:54;;;;;;;10.30;5.40;;;24.50;63.10;;;;;;1831963;78;21520;-56
2021/07/31 03:58:24;;;;;;;11.08;5.30;;;24.50;63.00;;;;;;1832310;78;21034;-56
2021/07/31 04:00:54;;;;;;;8.25;4.80;;;24.60;63.10;;;;;;1832086;78;21132;-56
2021/07/31 04:03:24;;;;;;;13.35;6.28;;;24.60;63.40;;;;;;1831955;78;21039;-56
2021/07/31 04:05:55;;;;;;;17.70;12.53;;;24.60;63.50;;;;;;1832049;78;21544;-56
2021/07/31 04:08:41;;;;;;;17.80;13.80;;;24.60;63.40;;;;;;1831976;78;21072;-56
2021/07/31 04:11:29;;;;;;;17.45;13.95;;;24.70;63.40;;;;;;1832001;78;21105;-56
2021/07/31 04:14:16;;;;;;;16.67;12.93;;;24.80;63.20;;;;;;1831950;78;21100;-56
2021/07/31 04:17:05;;;;;;;21.62;15.28;;;25.00;62.90;;;;;;1830722;78;21094;-56
2021/07/31 04:19:36;;;;;;;15.38;13.03;;;25.20;62.70;;;;;;1832002;77;21097;-56
2021/07/31 04:22:07;;;;;;;19.02;11.05;;;25.40;62.20;;;;;;1831849;78;21054;-56
2021/07/31 04:24:38;;;;;;;13.95;9.90;;;25.60;61.80;;;;;;1831240;77;21050;-56
2021/07/31 04:27:07;;;;;;;11.05;9.15;;;25.80;61.40;;;;;;1832042;78;21085;-56
2021/07/31 04:29:37;;;;;;;10.70;9.23;;;26.00;61.00;;;;;;1832040;78;21119;-56
2021/07/31 04:32:06;;;;;;;13.32;9.78;;;26.10;60.40;;;;;;1831965;77;21054;-56
2021/07/31 04:34:36;;;;;;;10.32;8.83;;;26.20;60.00;;;;;;1831882;78;21058;-56
2021/07/31 04:37:06;;;;;;;11.73;8.58;;;26.30;59.80;;;;;;1832086;78;21038;-56
2021/07/31 04:39:37;;;;;;;15.40;8.23;;;26.40;59.30;;;;;;1831848;77;21054;-56
2021/07/31 04:42:06;;;;;;;12.13;6.72;;;26.50;59.10;;;;;;1831889;78;21492;-56
2021/07/31 04:44:36;;;;;;;10.80;5.25;;;26.60;59.00;;;;;;1831964;78;21034;-56
2021/07/31 04:47:08;;;;;;;7.80;4.47;;;26.70;58.60;;;;;;1831955;78;21141;-59
2021/07/31 04:49:37;;;;;;;7.25;4.50;;;26.80;58.30;;;;;;1832118;78;21042;-56
2021/07/31 04:52:10;;;;;;;15.60;5.40;;;26.90;58.40;;;;;;1832004;78;21042;-56
2021/07/31 04:54:43;;;;;;;10.78;5.12;;;27.00;57.40;;;;;;1831936;78;21155;-56
2021/07/31 04:57:13;;;;;;;8.03;4.30;;;27.10;57.30;;;;;;1831909;78;21108;-56
2021/07/31 04:59:43;;;;;;;11.78;4.80;;;27.20;57.20;;;;;;1832071;78;21517;-56
2021/07/31 05:02:12;;;;;;;11.43;4.97;;;27.30;56.90;;;;;;1831893;78;21124;-56
2021/07/31 05:04:41;;;;;;;8.43;5.10;;;27.40;56.80;;;;;;1831918;78;21030;-56
2021/07/31 05:07:11;;;;;;;10.25;5.22;;;27.50;56.40;;;;;;1831920;78;21116;-56
2021/07/31 05:09:40;;;;;;;11.88;5.75;;;27.50;56.20;;;;;;1831868;78;21108;-56
2021/07/31 05:12:09;;;;;;;7.15;5.20;;;27.60;56.20;;;;;;1831811;77;21097;-56
2021/07/31 05:14:39;;;;;;;13.10;5.67;;;27.70;56.10;;;;;;1831971;78;21136;-56
2021/07/31 05:17:08;;;;;;;10.95;5.87;;;27.70;56.00;;;;;;1831944;78;21120;-56
2021/07/31 05:19:38;;;;;;;16.57;5.78;;;27.80;56.20;;;;;;1831894;78;21054;-56
2021/07/31 05:22:07;;;;;;;9.23;6.05;;;27.90;56.10;;;;;;1831927;78;21128;-56
2021/07/31 05:24:37;;;;;;;11.83;5.22;;;28.00;56.00;;;;;;1831861;78;21022;-56
2021/07/31 05:27:06;;;;;;;11.85;6.00;;;28.10;56.00;;;;;;1832005;78;21493;-56
2021/07/31 05:29:36;;;;;;;8.85;6.00;;;28.20;55.60;;;;;;1831858;78;21050;-56
2021/07/31 05:32:06;;;;;;;8.78;5.78;;;28.20;55.50;;;;;;1831993;78;21070;-56
2021/07/31 05:34:35;;;;;;;10.82;5.75;;;28.30;55.60;;;;;;1831962;78;21049;-56
2021/07/31 05:37:04;;;;;;;6.35;4.33;;;28.40;55.50;;;;;;1831981;78;21488;-56
2021/07/31 05:39:35;;;;;;;14.55;8.00;;;28.40;55.60;;;;;;1832111;78;21066;-56
2021/07/31 05:42:05;;;;;;;13.93;6.08;;;28.50;55.50;;;;;;1831995;78;21022;-56
2021/07/31 05:44:35;;;;;;;15.35;9.00;;;28.60;55.30;;;;;;1831993;78;21042;-56
2021/07/31 05:47:04;;;;;;;12.82;6.92;;;28.60;55.10;;;;;;1831945;77;21097;-56
2021/07/31 05:49:33;;;;;;;7.47;5.55;;;28.60;55.20;;;;;;1832055;78;21116;-56
2021/07/31 05:52:05;;;;;;;10.70;5.17;;;28.60;55.10;;;;;;1832025;78;21054;-56
2021/07/31 05:54:36;;;;;;;16.27;9.93;;;28.70;55.10;;;;;;1832130;78;21062;-56
2021/07/31 05:57:06;;;;;;;25.55;10.05;;;28.70;55.30;;;;;;1832151;78;21056;-56
2021/07/31 05:59:35;;;;;;;15.32;7.95;;;28.80;55.20;;;;;;1832030;78;21058;-56
2021/07/31 06:02:07;;;;;;;11.03;6.50;;;28.90;54.50;;;;;;1831927;78;21125;-56
2021/07/31 06:04:38;;;;;;;17.95;8.60;;;29.00;54.20;;;;;;1831946;78;21054;-56
2021/07/31 06:07:07;;;;;;;22.48;9.00;;;29.00;53.90;;;;;;1831786;78;21500;-56
2021/07/31 06:09:37;;;;;;;21.10;9.70;;;29.10;53.70;;;;;;1831939;78;21112;-56
2021/07/31 06:12:08;;;;;;;17.32;9.65;;;29.20;53.10;;;;;;1831956;78;21070;-56
2021/07/31 06:14:39;;;;;;;14.80;6.67;;;29.40;52.50;;;;;;1831968;78;21559;-56
2021/07/31 06:17:09;;;;;;;21.45;8.25;;;29.40;51.40;;;;;;1831965;78;21156;-56
2021/07/31 06:19:38;;;;;;;15.32;7.22;;;29.50;51.10;;;;;;1831972;77;21228;-56
2021/07/31 06:22:09;;;;;;;17.50;7.70;;;29.50;51.00;;;;;;1831970;78;21031;-56
2021/07/31 06:24:39;;;;;;;15.95;8.25;;;29.60;51.00;;;;;;1831956;78;21022;-56
2021/07/31 06:27:08;;;;;;;12.28;6.08;;;29.70;50.60;;;;;;1831856;78;21050;-56
2021/07/31 06:29:37;;;;;;;10.63;5.85;;;29.80;50.70;;;;;;1832028;78;21014;-56
2021/07/31 06:32:07;;;;;;;13.88;5.58;;;29.80;49.20;;;;;;1831961;78;21562;-56
2021/07/31 06:34:36;;;;;;;12.58;5.03;;;29.90;49.50;;;;;;1831990;78;21112;-56
2021/07/31 06:37:06;;;;;;;8.43;5.22;;;29.90;49.00;;;;;;1831975;78;21066;-56
2021/07/31 06:39:35;;;;;;;10.28;4.90;;;30.00;49.20;;;;;;1831978;78;21058;-56
2021/07/31 06:42:05;;;;;;;9.23;5.15;;;30.00;49.20;;;;;;1831970;78;21124;-56
2021/07/31 06:44:34;;;;;;;9.95;5.35;;;30.10;48.80;;;;;;1832076;78;21058;-56
2021/07/31 06:47:04;;;;;;;6.75;4.08;;;30.20;49.00;;;;;;1831918;78;21058;-56
2021/07/31 06:49:33;;;;;;;4.85;3.80;;;30.30;48.50;;;;;;1832008;78;21034;-56
2021/07/31 06:52:03;;;;;;;9.03;3.98;;;30.30;48.40;;;;;;1831933;78;21132;-56
2021/07/31 06:54:33;;;;;;;9.35;4.35;;;30.40;47.60;;;;;;1832029;78;21078;-56
2021/07/31 06:57:02;;;;;;;4.67;3.70;;;30.50;47.20;;;;;;1831906;78;21054;-56
2021/07/31 06:59:32;;;;;;;7.20;3.12;;;30.50;47.20;;;;;;1831868;78;21050;-56
2021/07/31 07:02:01;;;;;;;8.00;3.92;;;30.60;47.00;;;;;;1832011;78;21070;-56
2021/07/31 07:04:31;;;;;;;3.83;3.15;;;30.60;46.90;;;;;;1831837;78;21074;-56
2021/07/31 07:07:00;;;;;;;4.17;3.20;;;30.70;46.20;;;;;;1831824;78;21081;-56
2021/07/31 07:09:30;;;;;;;5.25;3.30;;;30.80;45.80;;;;;;1831874;78;21208;-56
2021/07/31 07:11:59;;;;;;;6.03;3.65;;;30.80;45.90;;;;;;1831957;78;21112;-56
2021/07/31 07:14:28;;;;;;;4.75;3.45;;;30.90;46.00;;;;;;1831986;78;21050;-56
2021/07/31 07:16:58;;;;;;;4.60;3.10;;;31.00;45.80;;;;;;1831763;78;21053;-56
2021/07/31 07:19:27;;;;;;;7.03;3.30;;;31.00;45.10;;;;;;1831884;78;21050;-56
2021/07/31 07:21:56;;;;;;;8.13;3.15;;;31.10;44.80;;;;;;1824949;78;21578;-56
2021/07/31 07:24:26;;;;;;;4.25;3.12;;;31.20;44.10;;;;;;1822981;79;21055;-56
2021/07/31 07:26:55;;;;;;;5.65;4.50;;;31.30;43.70;;;;;;1822871;79;21055;-56
2021/07/31 07:29:25;;;;;;;9.43;3.33;;;31.40;43.00;;;;;;1823092;79;21069;-56
2021/07/31 07:31:54;;;;;;;6.37;3.30;;;31.40;43.10;;;;;;1822917;79;21193;-56
2021/07/31 07:34:23;;;;;;;10.28;3.47;;;31.50;43.40;;;;;;1823025;79;21035;-56
2021/07/31 07:36:53;;;;;;;4.33;3.55;;;31.50;43.20;;;;;;1823046;79;21120;-56
2021/07/31 07:39:22;;;;;;;6.33;3.85;;;31.60;43.50;;;;;;1823077;79;21128;-56
2021/07/31 07:41:51;;;;;;;5.28;3.10;;;31.60;43.10;;;;;;1822917;79;21079;-56
2021/07/31 07:44:23;;;;;;;14.80;10.95;;;31.80;42.40;;;;;;1823017;79;21070;-56
2021/07/31 07:46:52;;;;;;;10.72;3.52;;;31.80;42.10;;;;;;1822882;79;21051;-56
2021/07/31 07:49:21;;;;;;;20.20;4.40;;;31.90;42.60;;;;;;1822922;78;21066;-56
2021/07/31 07:51:51;;;;;;;7.10;3.25;;;31.90;42.60;;;;;;1822889;79;21093;-56
2021/07/31 07:54:20;;;;;;;4.97;3.10;;;32.00;43.30;;;;;;1822983;79;21108;-56
2021/07/31 07:56:50;;;;;;;6.05;2.92;;;32.00;43.70;;;;;;1822929;78;21043;-56
2021/07/31 07:59:19;;;;;;;4.00;3.47;;;32.10;43.90;;;;;;1823029;77;21116;-56
2021/07/31 08:01:49;;;;;;;5.70;3.40;;;32.20;43.90;;;;;;1822986;78;21054;-56
2021/07/31 08:04:19;;;;;;;4.47;3.12;;;32.20;44.20;;;;;;1822999;79;21059;-56
2021/07/31 08:06:48;;;;;;;4.37;3.15;;;32.20;44.30;;;;;;1822963;79;21086;-56
2021/07/31 08:09:18;;;;;;;5.28;3.20;;;32.30;44.20;;;;;;1822987;77;21054;-56
2021/07/31 08:11:47;;;;;;;9.73;3.92;;;32.40;43.40;;;;;;1823008;79;21112;-56
2021/07/31 08:14:17;;;;;;;4.72;3.35;;;32.40;43.00;;;;;;1823038;79;21078;-56
2021/07/31 08:16:46;;;;;;;10.05;4.58;;;32.40;43.20;;;;;;1823077;78;21046;-56
2021/07/31 08:19:16;;;;;;;5.80;3.98;;;32.50;43.70;;;;;;1823173;79;21122;-56
2021/07/31 08:21:45;;;;;;;12.85;4.33;;;32.50;43.70;;;;;;1827217;77;21246;-56
2021/07/31 08:24:16;;;;;;;3.58;3.20;;;32.50;43.90;;;;;;1832032;78;21026;-56
2021/07/31 08:26:46;;;;;;;4.37;3.45;;;32.50;44.00;;;;;;1832029;78;21476;-56
2021/07/31 08:29:16;;;;;;;9.80;6.35;;;32.50;43.60;;;;;;1832239;78;21121;-56
2021/07/31 08:31:46;;;;;;;4.20;3.00;;;32.50;43.20;;;;;;1832087;78;21116;-56
2021/07/31 08:34:16;;;;;;;5.83;3.00;;;32.60;42.30;;;;;;1831972;77;21054;-56
2021/07/31 08:36:45;;;;;;;5.50;3.58;;;32.60;42.70;;;;;;1831961;78;21050;-56
2021/07/31 08:39:15;;;;;;;6.78;3.30;;;32.60;42.80;;;;;;1831968;78;21128;-56
2021/07/31 08:41:47;;;;;;;6.70;4.17;;;32.70;42.70;;;;;;1831892;78;21070;-56
2021/07/31 08:44:16;;;;;;;6.60;3.33;;;32.70;42.50;;;;;;1831917;78;21046;-56
2021/07/31 08:46:49;;;;;;;6.30;3.30;;;32.60;42.70;;;;;;1832061;78;21508;-56
2021/07/31 08:49:20;;;;;;;5.62;3.52;;;32.70;42.90;;;;;;1831983;78;21054;-56
2021/07/31 08:51:50;;;;;;;3.95;2.75;;;32.70;42.50;;;;;;1831804;78;21049;-56
2021/07/31 08:54:19;;;;;;;6.45;3.02;;;32.70;39.90;;;;;;1832015;78;21117;-56
2021/07/31 08:56:49;;;;;;;4.95;2.83;;;32.70;39.10;;;;;;1832025;78;21062;-56
2021/07/31 08:59:18;;;;;;;4.42;2.75;;;32.70;38.70;;;;;;1832012;77;21077;-56
2021/07/31 09:01:48;;;;;;;8.83;3.75;;;32.70;39.00;;;;;;1831997;78;21146;-56
2021/07/31 09:04:18;;;;;;;5.17;3.85;;;32.70;39.30;;;;;;1831988;78;21050;-56
2021/07/31 09:06:47;;;;;;;8.88;3.60;;;32.80;40.20;;;;;;1832041;78;21050;-56
2021/07/31 09:09:25;;;;;;;6.83;2.77;;;32.90;39.80;;;;;;1832218;78;21061;-56
2021/07/31 09:12:02;;;;;;;5.85;3.00;;;32.90;38.30;;;;;;1832101;78;21062;-56
2021/07/31 09:14:32;;;;;;;9.58;3.92;;;33.00;37.90;;;;;;1831536;77;21171;-56
2021/07/31 09:17:02;;;;;;;5.78;3.70;;;33.00;38.70;;;;;;1832024;78;21093;-56
2021/07/31 09:19:31;;;;;;;7.83;3.70;;;33.10;39.40;;;;;;1832013;78;21109;-56
2021/07/31 09:22:09;;;;;;;5.70;2.75;;;33.10;39.70;;;;;;1828697;78;21089;-56
2021/07/31 09:24:38;;;;;;;5.90;3.90;;;33.20;39.80;;;;;;1823054;79;21504;-56
2021/07/31 09:27:09;;;;;;;3.72;3.12;;;33.20;40.30;;;;;;1823046;79;21018;-56
2021/07/31 09:29:39;;;;;;;4.17;3.40;;;33.30;39.80;;;;;;1818805;77;21449;-56
2021/07/31 09:32:08;;;;;;;4.35;3.00;;;33.40;39.80;;;;;;1823048;79;21038;-56
2021/07/31 09:34:40;;;;;;;4.08;3.05;;;33.40;39.60;;;;;;1823161;79;21030;-56
2021/07/31 09:37:23;;;;;;;4.92;3.62;;;33.40;40.00;;;;;;1822695;78;21070;-57
2021/07/31 09:39:51;;;;;;;5.80;3.20;;;33.40;40.90;;;;;;1822514;78;21046;-56
2021/07/31 09:42:32;;;;;;;4.70;3.10;;;33.40;40.70;;;;;;1822101;79;21042;-54
2021/07/31 09:45:13;;;;;;;6.58;3.58;;;33.40;41.00;;;;;;1821167;79;21105;-55
2021/07/31 09:48:02;;;;;;;6.62;3.52;;;33.40;40.90;;;;;;1821430;79;21110;-54
2021/07/31 09:50:43;;;;;;;5.53;3.70;;;33.50;41.10;;;;;;1822847;79;21594;-54
2021/07/31 09:53:14;;;;;;;3.40;3.00;;;33.60;41.10;;;;;;1821290;78;21183;-55
2021/07/31 09:55:48;;;;;;;4.60;3.17;;;33.60;40.90;;;;;;1822020;79;21058;-55
2021/07/31 09:58:19;;;;;;;5.15;3.20;;;33.70;41.10;;;;;;1822831;79;21195;-57
2021/07/31 10:00:54;;;;;;;4.35;3.55;;;33.80;41.30;;;;;;1822171;79;21074;-57
2021/07/31 10:03:24;;;;;;;5.25;3.87;;;33.80;41.00;;;;;;1822632;79;21042;-57
2021/07/31 10:05:53;;;;;;;9.05;3.40;;;33.90;40.90;;;;;;1822491;79;21051;-57
2021/07/31 10:08:23;;;;;;;5.28;3.75;;;34.00;40.70;;;;;;1822882;79;21161;-57
2021/07/31 10:10:52;;;;;;;4.67;3.72;;;33.90;40.80;;;;;;1822793;78;21126;-57
2021/07/31 10:13:23;;;;;;;4.67;3.45;;;34.00;41.40;;;;;;1822905;78;21144;-57
2021/07/31 10:15:53;;;;;;;6.75;3.45;;;34.00;41.30;;;;;;1822190;79;21118;-57
2021/07/31 10:18:26;;;;;;;6.12;3.55;;;34.10;40.50;;;;;;1821947;79;21372;-57
2021/07/31 10:20:53;;;;;;;4.87;3.30;;;34.00;40.20;;;;;;1821906;77;21081;-57
2021/07/31 10:24:00;;;;;;;4.28;3.10;;;34.00;40.00;;;;;;1822273;77;21224;-57
2021/07/31 10:26:31;;;;;;;5.50;3.50;;;34.00;39.90;;;;;;1822213;79;21180;-57
2021/07/31 10:29:24;;;;;;;5.40;3.15;;;34.00;39.60;;;;;;1822528;79;21043;-57
2021/07/31 10:31:57;;;;;;;5.45;3.67;;;34.00;39.70;;;;;;1801663;78;21134;-57
2021/07/31 10:34:47;;;;;;;4.10;3.20;;;34.00;39.80;;;;;;1822988;79;21109;-57
2021/07/31 10:37:39;;;;;;;6.70;4.25;;;34.00;39.90;;;;;;1819118;79;21177;-57
2021/07/31 10:40:13;;;;;;;3.92;3.52;;;33.90;41.10;;;;;;1822982;78;21134;-57
2021/07/31 10:42:55;;;;;;;6.95;4.10;;;33.80;42.00;;;;;;1820091;78;21067;-57
2021/07/31 10:45:30;;;;;;;5.37;3.67;;;33.80;42.50;;;;;;1822888;79;21109;-57
2021/07/31 10:48:07;;;;;;;7.80;5.75;;;33.90;43.10;;;;;;1823024;79;21128;-57
2021/07/31 10:50:38;;;;;;;4.83;3.52;;;33.90;42.70;;;;;;1817991;78;21136;-57
2021/07/31 10:53:14;;;;;;;4.37;3.35;;;33.90;42.90;;;;;;1822933;79;21054;-57
2021/07/31 10:55:45;;;;;;;5.10;3.58;;;33.80;43.20;;;;;;1822544;77;21521;-57
2021/07/31 10:58:22;;;;;;;9.20;3.72;;;33.80;43.40;;;;;;1823123;79;21140;-57
2021/07/31 11:00:53;;;;;;;5.35;3.90;;;33.80;43.70;;;;;;1823074;79;21427;-57
2021/07/31 11:03:27;;;;;;;5.65;3.47;;;33.70;43.80;;;;;;1823066;79;21058;-57
2021/07/31 11:06:00;;;;;;;5.20;3.52;;;33.70;44.10;;;;;;1823321;78;21043;-58
2021/07/31 11:08:34;;;;;;;4.83;3.35;;;33.70;44.00;;;;;;1823299;79;21027;-58
2021/07/31 11:11:21;;;;;;;4.72;3.72;;;33.80;44.00;;;;;;1823068;79;21112;-59
2021/07/31 11:13:52;;;;;;;5.97;3.30;;;33.90;44.00;;;;;;1823091;79;21066;-58
2021/07/31 11:16:23;;;;;;;3.65;3.22;;;33.90;43.80;;;;;;1823062;79;21424;-59
2021/07/31 11:18:58;;;;;;;5.55;3.85;;;34.00;43.50;;;;;;1823063;78;21144;-59
2021/07/31 11:21:30;;;;;;;4.90;3.75;;;34.00;44.00;;;;;;1823187;79;21050;-59
2021/07/31 11:24:07;;;;;;;4.15;3.50;;;34.00;44.20;;;;;;1826974;78;21069;-59
2021/07/31 11:26:52;;;;;;;9.93;3.75;;;34.00;43.70;;;;;;1828785;78;21070;-60
2021/07/31 11:29:23;;;;;;;9.73;4.17;;;34.00;43.30;;;;;;1828867;78;21058;-60
2021/07/31 11:32:00;;;;;;;3.95;3.33;;;34.00;43.30;;;;;;1828820;78;21171;-60
2021/07/31 11:34:38;;;;;;;4.60;3.90;;;34.10;43.40;;;;;;1828843;78;21124;-60
2021/07/31 11:37:07;;;;;;;9.98;3.98;;;34.10;42.80;;;;;;1828875;78;21228;-60
2021/07/31 11:39:38;;;;;;;6.65;3.58;;;34.10;42.70;;;;;;1828844;78;21078;-60
2021/07/31 11:42:09;;;;;;;7.25;3.70;;;34.20;43.20;;;;;;1828866;78;21084;-60
2021/07/31 11:44:42;;;;;;;18.65;5.30;;;34.30;43.20;;;;;;1828857;78;21058;-59
2021/07/31 11:47:11;;;;;;;25.00;7.37;;;34.30;44.90;;;;;;1829149;78;21046;-60
2021/07/31 11:49:42;;;;;;;32.08;7.95;;;34.10;46.70;;;;;;1828963;78;21058;-60
2021/07/31 11:52:12;;;;;;;17.57;5.25;;;33.90;47.50;;;;;;1828738;78;21058;-60
2021/07/31 11:54:45;;;;;;;14.03;4.72;;;33.70;48.10;;;;;;1828697;78;21085;-60
2021/07/31 11:57:16;;;;;;;14.38;5.37;;;33.60;48.30;;;;;;1828781;78;21144;-60
2021/07/31 11:59:45;;;;;;;14.05;5.65;;;33.40;48.60;;;;;;1828703;78;21050;-60
2021/07/31 12:02:14;;;;;;;16.45;7.40;;;33.20;48.60;;;;;;1828713;78;21046;-60
2021/07/31 12:04:50;;;;;;;9.55;4.78;;;33.10;49.60;;;;;;1828701;77;21093;-60
2021/07/31 12:07:28;;;;;;;9.48;3.60;;;32.90;49.30;;;;;;1829016;78;21550;-59
2021/07/31 12:10:10;;;;;;;11.33;4.15;;;32.80;49.50;;;;;;1828458;78;21132;-59
2021/07/31 12:12:43;;;;;;;17.17;7.20;;;32.70;49.40;;;;;;1828923;78;21120;-59
2021/07/31 12:15:24;;;;;;;13.18;8.55;;;32.50;49.00;;;;;;1828875;78;21157;-59
2021/07/31 12:18:02;;;;;;;16.97;9.33;;;32.40;48.70;;;;;;1828873;78;21078;-58
2021/07/31 12:20:31;;;;;;;18.05;8.10;;;32.30;48.00;;;;;;1828704;78;21081;-58
2021/07/31 12:23:02;;;;;;;31.65;14.43;;;32.30;47.70;;;;;;1828510;77;21120;-58
2021/07/31 12:25:31;;;;;;;21.17;10.72;;;32.20;48.00;;;;;;1831648;78;21078;-58
2021/07/31 12:28:16;;;;;;;7.65;4.00;;;32.30;48.30;;;;;;1832107;78;21300;-58
2021/07/31 12:30:46;;;;;;;6.67;3.52;;;32.40;48.60;;;;;;1831559;78;21183;-58
2021/07/31 12:33:17;;;;;;;8.33;4.92;;;32.50;48.30;;;;;;1831981;78;21046;-58
2021/07/31 12:35:51;;;;;;;7.20;4.00;;;32.50;48.20;;;;;;1832017;78;21046;-58
2021/07/31 12:38:25;;;;;;;6.60;4.30;;;32.50;47.80;;;;;;1832069;78;21042;-58
2021/07/31 12:40:57;;;;;;;10.35;6.15;;;32.50;47.90;;;;;;1832202;78;21120;-58
2021/07/31 12:43:27;;;;;;;11.83;4.50;;;32.60;47.80;;;;;;1832035;78;21046;-58
2021/07/31 12:45:59;;;;;;;15.60;8.05;;;32.70;48.20;;;;;;1831993;78;21054;-57
2021/07/31 12:48:29;;;;;;;10.82;4.80;;;32.70;48.00;;;;;;1832097;78;21497;-58
2021/07/31 12:50:59;;;;;;;11.60;5.00;;;32.80;47.90;;;;;;1832018;78;21050;-57
2021/07/31 12:53:30;;;;;;;10.50;5.33;;;32.80;47.60;;;;;;1832113;78;21070;-58
2021/07/31 12:55:59;;;;;;;10.08;5.65;;;32.80;47.30;;;;;;1832058;78;21062;-58
2021/07/31 12:58:29;;;;;;;4.75;4.25;;;32.80;47.80;;;;;;1831974;78;21154;-58
2021/07/31 13:00:58;;;;;;;6.08;3.83;;;32.80;47.60;;;;;;1832089;78;21069;-60
2021/07/31 13:03:28;;;;;;;6.42;3.90;;;32.80;46.90;;;;;;1832113;78;21026;-60
2021/07/31 13:05:57;;;;;;;8.45;3.77;;;32.80;46.40;;;;;;1831980;77;21120;-60